Time;durP1;ratioP1;P1;durP2;ratioP2;P2;SDS_P1;SDS_P2;PMS_P1;PMS_P2;Temp;Humidity;BMP_temperature;BMP_pressure;BME280_temperature;BME280_humidity;BME280_pressure;Samples;Min_cycle;Max_cycle;Signal;HPM_P1;HPM_P2
2022/11/26 00:00:33;;;;;;;20.55;12.55;;;;;;;3.04;85.81;100298.81;1765851;78;21109;-71
2022/11/26 00:02:59;;;;;;;20.15;12.50;;;;;;;3.04;85.80;100301.42;1758596;80;21350;-68
2022/11/26 00:05:28;;;;;;;18.62;12.28;;;;;;;3.03;85.79;100304.48;1784249;80;21925;-72
2022/11/26 00:07:56;;;;;;;21.12;12.73;;;;;;;3.03;85.80;100306.25;1758654;80;21564;-75
2022/11/26 00:10:28;;;;;;;19.35;12.53;;;;;;;3.03;85.83;100308.86;1782254;78;21078;-69
2022/11/26 00:12:55;;;;;;;18.95;12.00;;;;;;;3.05;85.87;100308.32;1774186;80;21584;-71
2022/11/26 00:15:28;;;;;;;18.98;12.35;;;;;;;3.05;85.89;100301.34;1766571;80;21082;-66
2022/11/26 00:17:54;;;;;;;20.75;12.78;;;;;;;3.06;85.89;100304.79;1768448;79;21902;-72
2022/11/26 00:20:29;;;;;;;20.35;12.73;;;;;;;3.07;85.90;100309.93;1781895;80;21383;-66
2022/11/26 00:22:57;;;;;;;21.05;12.47;;;;;;;3.08;85.91;100314.69;1733659;80;21003;-68
2022/11/26 00:25:38;;;;;;;20.82;12.95;;;;;;;3.09;85.97;100316.41;1768433;79;21069;-67
2022/11/26 00:28:19;;;;;;;21.27;13.78;;;;;;;3.08;85.91;100311.61;1750931;80;21042;-66
2022/11/26 00:30:46;;;;;;;23.40;14.30;;;;;;;3.10;85.92;100316.78;1749304;80;21813;-67
2022/11/26 00:33:12;;;;;;;21.87;13.83;;;;;;;3.10;85.94;100318.09;1772809;80;21335;-66
2022/11/26 00:35:39;;;;;;;22.52;13.70;;;;;;;3.10;85.93;100321.54;1774563;80;21354;-66
2022/11/26 00:38:05;;;;;;;22.87;14.30;;;;;;;3.12;85.94;100320.16;1781461;80;21081;-66
2022/11/26 00:40:32;;;;;;;22.32;14.05;;;;;;;3.11;85.94;100322.38;1782057;80;21062;-67
2022/11/26 00:42:59;;;;;;;22.65;14.68;;;;;;;3.12;85.97;100327.98;1765599;80;21894;-67
2022/11/26 00:45:31;;;;;;;21.23;14.33;;;;;;;3.12;85.98;100324.91;1777655;80;21073;-67
2022/11/26 00:48:00;;;;;;;23.73;14.50;;;;;;;3.12;85.96;100325.37;1734507;81;20969;-68
2022/11/26 00:50:27;;;;;;;21.77;13.93;;;;;;;3.10;85.98;100321.54;1732830;82;21418;-67
2022/11/26 00:52:55;;;;;;;20.10;13.40;;;;;;;3.12;86.02;100326.22;1726511;81;21043;-67
2022/11/26 00:55:36;;;;;;;20.25;13.28;;;;;;;3.14;86.00;100331.36;1735125;81;22665;-67
2022/11/26 00:58:03;;;;;;;21.12;12.63;;;;;;;3.14;86.06;100329.59;1730306;82;21446;-67
2022/11/26 01:00:32;;;;;;;20.10;12.80;;;;;;;3.19;86.05;100328.53;1738169;81;21031;-67
2022/11/26 01:03:00;;;;;;;22.98;13.60;;;;;;;3.19;86.04;100330.69;1744609;82;21383;-72
2022/11/26 01:05:29;;;;;;;21.50;13.20;;;;;;;3.19;86.06;100330.69;1725090;81;21052;-67
2022/11/26 01:08:02;;;;;;;21.17;13.28;;;;;;;3.20;86.04;100331.06;1737816;80;21870;-67
2022/11/26 01:10:29;;;;;;;18.75;12.63;;;;;;;3.19;86.01;100334.59;1740551;82;20985;-67
2022/11/26 01:12:56;;;;;;;21.65;13.35;;;;;;;3.18;86.02;100338.10;1740186;82;21058;-73
2022/11/26 01:15:24;;;;;;;23.30;14.13;;;;;;;3.18;86.00;100341.17;1727583;82;20953;-67
2022/11/26 01:17:51;;;;;;;22.87;14.15;;;;;;;3.19;86.07;100339.81;1728566;82;20957;-68
2022/11/26 01:20:25;;;;;;;24.57;15.18;;;;;;;3.20;86.05;100342.81;1726107;83;21945;-67
2022/11/26 01:22:54;;;;;;;24.60;14.85;;;;;;;3.19;86.03;100335.91;1712213;83;20994;-67
2022/11/26 01:25:21;;;;;;;24.75;16.00;;;;;;;3.20;86.03;100336.28;1718143;82;20961;-74
2022/11/26 01:27:48;;;;;;;25.25;15.23;;;;;;;3.18;86.01;100336.80;1711898;82;21026;-68
2022/11/26 01:30:25;;;;;;;23.30;15.03;;;;;;;3.15;86.02;100341.72;1723057;83;21001;-66
2022/11/26 01:32:52;;;;;;;22.17;15.20;;;;;;;3.13;86.02;100347.47;1725043;83;21853;-67
2022/11/26 01:35:19;;;;;;;21.75;14.85;;;;;;;3.16;86.05;100347.78;1726082;82;20982;-67
2022/11/26 01:37:47;;;;;;;24.90;15.20;;;;;;;3.15;86.09;100346.94;1719240;82;21464;-72
2022/11/26 01:40:31;;;;;;;26.07;14.87;;;;;;;3.18;86.15;100340.71;1716854;83;21048;-67
2022/11/26 01:43:01;;;;;;;21.60;14.60;;;;;;;3.20;86.13;100339.36;1720321;82;21029;-67
2022/11/26 01:45:28;;;;;;;19.98;13.00;;;;;;;3.21;86.13;100339.73;1705210;83;21806;-67
2022/11/26 01:47:54;;;;;;;21.12;13.98;;;;;;;3.22;86.16;100346.18;1707179;83;21151;-67
2022/11/26 01:50:36;;;;;;;20.92;14.05;;;;;;;3.20;86.13;100338.89;1707539;83;21001;-68
2022/11/26 01:53:11;;;;;;;21.45;13.68;;;;;;;3.22;86.14;100342.27;1717865;83;20975;-68
2022/11/26 01:55:43;;;;;;;19.92;14.25;;;;;;;3.22;86.16;100343.57;1723925;83;21443;-67
2022/11/26 01:58:13;;;;;;;22.77;14.83;;;;;;;3.23;86.16;100341.80;1710680;82;22013;-67
2022/11/26 02:00:40;;;;;;;19.77;13.55;;;;;;;3.20;86.12;100342.81;1710906;83;21065;-67
2022/11/26 02:03:07;;;;;;;25.20;14.13;;;;;;;3.19;86.16;100351.56;1710353;83;21065;-68
2022/11/26 02:05:39;;;;;;;20.32;14.40;;;;;;;3.19;86.18;100349.41;1712569;82;21188;-69
2022/11/26 02:08:05;;;;;;;21.07;14.18;;;;;;;3.18;86.18;100352.92;1713725;83;21029;-68
2022/11/26 02:10:33;;;;;;;24.35;14.50;;;;;;;3.20;86.23;100358.94;1715090;82;21838;-67
2022/11/26 02:13:00;;;;;;;20.97;14.40;;;;;;;3.22;86.22;100353.17;1714341;82;21484;-67
2022/11/26 02:15:29;;;;;;;23.75;15.10;;;;;;;3.22;86.20;100361.00;1718989;82;21546;-67
2022/11/26 02:18:06;;;;;;;32.70;15.95;;;;;;;3.22;86.24;100360.53;1716688;81;21001;-67
2022/11/26 02:20:57;;;;;;;23.80;14.45;;;;;;;3.23;86.22;100367.91;1720853;82;21483;-67
2022/11/26 02:23:55;;;;;;;26.45;15.38;;;;;;;3.23;86.21;100362.69;1708414;83;21959;-70
2022/11/26 02:26:30;;;;;;;25.40;15.68;;;;;;;3.22;86.25;100369.67;1727689;83;20954;-69
2022/11/26 02:29:39;;;;;;;25.23;15.05;;;;;;;3.24;86.27;100369.13;1715951;83;21005;-67
2022/11/26 02:32:13;;;;;;;22.93;14.15;;;;;;;3.25;86.29;100365.59;1703201;82;21056;-66
2022/11/26 02:35:03;;;;;;;25.02;15.18;;;;;;;3.27;86.35;100366.82;1719438;83;21578;-68
2022/11/26 02:37:37;;;;;;;25.57;15.05;;;;;;;3.28;86.33;100367.20;1695211;83;21975;-67
2022/11/26 02:40:07;;;;;;;28.38;15.20;;;;;;;3.29;86.34;100367.16;1718502;83;21045;-67
2022/11/26 02:42:35;;;;;;;20.82;14.58;;;;;;;3.31;86.29;100373.14;1683940;83;21484;-68
2022/11/26 02:45:11;;;;;;;24.82;14.47;;;;;;;3.29;86.25;100368.45;1728198;83;21360;-70
2022/11/26 02:47:40;;;;;;;20.62;14.13;;;;;;;3.29;86.24;100375.45;1712401;83;20958;-72
2022/11/26 02:50:10;;;;;;;21.65;14.95;;;;;;;3.29;86.25;100372.37;1708940;83;21882;-68
2022/11/26 02:52:38;;;;;;;20.05;13.80;;;;;;;3.29;86.25;100374.98;1721710;82;20995;-68
2022/11/26 02:55:06;;;;;;;21.33;14.63;;;;;;;3.30;86.27;100374.52;1719739;82;21467;-69
2022/11/26 02:57:33;;;;;;;21.82;14.45;;;;;;;3.30;86.27;100379.74;1708333;82;20895;-69
2022/11/26 03:00:00;;;;;;;31.05;21.93;;;;;;;3.32;86.30;100381.81;1721187;82;21518;-68
2022/11/26 03:02:34;;;;;;;27.40;19.98;;;;;;;3.31;86.26;100384.04;1711390;83;22417;-68
2022/11/26 03:05:01;;;;;;;34.23;25.52;;;;;;;3.32;86.28;100385.73;1711243;83;21006;-68
2022/11/26 03:07:30;;;;;;;25.88;17.12;;;;;;;3.32;86.27;100377.44;1709019;83;21104;-68
2022/11/26 03:10:00;;;;;;;24.18;15.78;;;;;;;3.34;86.29;100381.27;1710519;82;20958;-68
2022/11/26 03:12:28;;;;;;;28.02;16.67;;;;;;;3.32;86.27;100376.13;1716765;83;21111;-67
2022/11/26 03:14:54;;;;;;;29.25;16.73;;;;;;;3.34;86.32;100376.05;1722528;83;21904;-67
2022/11/26 03:17:21;;;;;;;24.27;16.07;;;;;;;3.36;86.30;100381.57;1728308;83;21394;-67
2022/11/26 03:19:48;;;;;;;26.90;16.12;;;;;;;3.34;86.21;100383.41;1714929;81;21096;-68
2022/11/26 03:22:14;;;;;;;25.45;16.80;;;;;;;3.33;86.23;100379.12;1723667;83;21051;-68
2022/11/26 03:24:41;;;;;;;23.73;15.68;;;;;;;3.33;86.29;100384.34;1711107;82;20958;-70
2022/11/26 03:27:08;;;;;;;25.40;16.30;;;;;;;3.35;86.28;100392.09;1719576;83;21840;-68
2022/11/26 03:29:35;;;;;;;26.37;16.10;;;;;;;3.36;86.31;100393.31;1719181;83;21048;-69
2022/11/26 03:32:02;;;;;;;20.60;13.98;;;;;;;3.37;86.34;100397.61;1719982;83;20946;-67
2022/11/26 03:34:29;;;;;;;18.50;14.00;;;;;;;3.39;86.34;100397.56;1709226;83;20969;-72
2022/11/26 03:36:56;;;;;;;29.63;14.18;;;;;;;3.37;86.28;100393.70;1720648;82;21029;-68
2022/11/26 03:39:22;;;;;;;21.45;14.23;;;;;;;3.37;86.29;100400.22;1710134;83;22321;-68
2022/11/26 03:41:49;;;;;;;26.87;12.95;;;;;;;3.36;86.28;100402.45;1724598;83;20950;-68
2022/11/26 03:44:15;;;;;;;20.43;13.72;;;;;;;3.36;86.30;100406.37;1712024;83;21058;-67
2022/11/26 03:46:42;;;;;;;22.05;13.53;;;;;;;3.35;86.29;100414.28;1726982;83;21005;-68
2022/11/26 03:49:09;;;;;;;20.12;14.05;;;;;;;3.35;86.29;100416.43;1693493;83;20994;-67
2022/11/26 03:51:35;;;;;;;19.17;14.25;;;;;;;3.35;86.30;100415.12;1720441;82;21990;-67
2022/11/26 03:54:02;;;;;;;21.37;13.68;;;;;;;3.36;86.34;100416.81;1721349;82;21418;-67
2022/11/26 03:56:30;;;;;;;29.80;13.15;;;;;;;3.37;86.33;100423.72;1713872;82;21080;-69
2022/11/26 03:58:57;;;;;;;18.00;13.25;;;;;;;3.37;86.30;100422.88;1723404;82;21041;-68
2022/11/26 04:01:24;;;;;;;29.07;14.85;;;;;;;3.37;86.30;100425.02;1715299;82;20986;-68
2022/11/26 04:03:52;;;;;;;20.50;14.40;;;;;;;3.37;86.29;100426.80;1717983;83;21987;-67
2022/11/26 04:06:18;;;;;;;19.17;14.18;;;;;;;3.38;86.28;100431.13;1716428;83;21044;-68
2022/11/26 04:08:45;;;;;;;19.30;14.45;;;;;;;3.38;86.27;100437.19;1715529;82;21041;-67
2022/11/26 04:11:11;;;;;;;20.88;13.88;;;;;;;3.39;86.26;100438.03;1728698;83;20954;-67
2022/11/26 04:13:39;;;;;;;24.05;14.05;;;;;;;3.39;86.30;100441.48;1718106;82;21005;-68
2022/11/26 04:16:07;;;;;;;22.95;14.43;;;;;;;3.39;86.26;100440.64;1708514;82;22083;-68
2022/11/26 04:18:34;;;;;;;19.12;13.62;;;;;;;3.36;86.26;100441.61;1720796;81;21048;-68
2022/11/26 04:21:01;;;;;;;22.52;13.80;;;;;;;3.37;86.28;100440.69;1757076;81;20952;-72
2022/11/26 04:23:27;;;;;;;25.48;12.90;;;;;;;3.39;86.30;100440.64;1735961;81;21004;-68
2022/11/26 04:25:54;;;;;;;20.97;13.70;;;;;;;3.40;86.31;100440.56;1745338;81;21023;-68
2022/11/26 04:28:21;;;;;;;22.93;15.05;;;;;;;3.39;86.26;100445.86;1734766;81;21935;-68
2022/11/26 04:30:47;;;;;;;19.85;12.98;;;;;;;3.39;86.30;100447.17;1750180;81;21459;-69
2022/11/26 04:33:14;;;;;;;18.77;12.73;;;;;;;3.40;86.34;100448.86;1749339;81;21047;-68
2022/11/26 04:35:42;;;;;;;21.85;14.07;;;;;;;3.42;86.34;100449.16;1733689;81;21482;-68
2022/11/26 04:38:09;;;;;;;20.85;14.18;;;;;;;3.40;86.32;100448.39;1742012;81;21543;-69
2022/11/26 04:40:36;;;;;;;23.62;14.10;;;;;;;3.41;86.36;100449.24;1754008;81;21930;-67
2022/11/26 04:43:03;;;;;;;24.80;15.25;;;;;;;3.44;86.38;100456.91;1730033;81;20988;-68
2022/11/26 04:45:29;;;;;;;22.87;14.55;;;;;;;3.44;86.35;100459.53;1731508;81;21012;-67
2022/11/26 04:47:56;;;;;;;21.40;13.45;;;;;;;3.46;86.39;100461.59;1736238;81;21011;-67
2022/11/26 04:50:24;;;;;;;26.10;14.05;;;;;;;3.50;86.39;100462.31;1743171;81;21084;-67
2022/11/26 04:52:51;;;;;;;29.07;13.58;;;;;;;3.49;86.34;100463.23;1749208;81;21868;-68
2022/11/26 04:55:17;;;;;;;29.85;14.95;;;;;;;3.47;86.33;100465.89;1746821;81;21053;-68
2022/11/26 04:57:47;;;;;;;24.72;14.23;;;;;;;3.45;86.32;100465.97;1739256;81;21041;-67
2022/11/26 05:00:15;;;;;;;27.87;14.28;;;;;;;3.47;86.32;100471.12;1734815;81;21542;-68
2022/11/26 05:02:42;;;;;;;25.50;14.93;;;;;;;3.49;86.34;100473.22;1739073;81;21320;-68
2022/11/26 05:05:08;;;;;;;18.65;13.03;;;;;;;3.48;86.33;100471.99;1754726;81;21890;-68
2022/11/26 05:07:35;;;;;;;27.40;14.87;;;;;;;3.52;86.34;100478.75;1749524;81;21026;-67
2022/11/26 05:10:04;;;;;;;18.75;13.15;;;;;;;3.51;86.29;100478.36;1749752;81;20941;-71
2022/11/26 05:12:31;;;;;;;30.00;14.23;;;;;;;3.50;86.29;100483.20;1743642;81;21056;-68
2022/11/26 05:14:57;;;;;;;23.70;14.93;;;;;;;3.48;86.31;100484.59;1748228;81;21056;-67
2022/11/26 05:17:24;;;;;;;18.73;13.88;;;;;;;3.48;86.27;100481.98;1736645;81;21913;-68
2022/11/26 05:19:51;;;;;;;21.75;13.62;;;;;;;3.48;86.27;100488.50;1731635;81;20934;-68
2022/11/26 05:22:17;;;;;;;23.18;13.93;;;;;;;3.48;86.28;100491.58;1712645;83;21053;-67
2022/11/26 05:24:44;;;;;;;25.30;13.68;;;;;;;3.47;86.28;100493.77;1710478;83;21087;-72
2022/11/26 05:27:11;;;;;;;19.05;13.20;;;;;;;3.47;86.30;100492.00;1723277;83;21099;-68
2022/11/26 05:29:37;;;;;;;24.18;13.58;;;;;;;3.46;86.27;100495.54;1710680;82;21944;-68
2022/11/26 05:32:04;;;;;;;26.70;14.13;;;;;;;3.45;86.29;100497.30;1709161;82;21056;-67
2022/11/26 05:34:32;;;;;;;31.00;14.10;;;;;;;3.47;86.26;100504.22;1720987;83;20957;-68
2022/11/26 05:36:59;;;;;;;20.35;12.25;;;;;;;3.44;86.25;100510.44;1718886;82;21112;-68
2022/11/26 05:39:25;;;;;;;26.82;13.15;;;;;;;3.42;86.22;100503.99;1708986;82;21020;-67
2022/11/26 05:41:52;;;;;;;26.23;13.55;;;;;;;3.39;86.20;100511.98;1706191;83;21820;-68
2022/11/26 05:44:19;;;;;;;26.12;13.65;;;;;;;3.37;86.24;100515.09;1718287;82;20990;-75
2022/11/26 05:46:46;;;;;;;28.92;12.98;;;;;;;3.36;86.25;100516.02;1715334;81;21056;-71
2022/11/26 05:49:13;;;;;;;17.30;12.98;;;;;;;3.36;86.29;100516.02;1706037;83;21011;-68
2022/11/26 05:51:39;;;;;;;22.73;13.40;;;;;;;3.39;86.32;100522.42;1705999;82;21040;-68
2022/11/26 05:54:06;;;;;;;20.85;13.38;;;;;;;3.38;86.34;100522.04;1709368;83;21951;-67
2022/11/26 05:56:32;;;;;;;24.75;13.10;;;;;;;3.39;86.32;100525.50;1717878;83;21519;-68
2022/11/26 05:58:59;;;;;;;19.80;13.48;;;;;;;3.37;86.33;100522.93;1718869;83;21024;-68
2022/11/26 06:01:25;;;;;;;19.82;13.62;;;;;;;3.36;86.31;100521.24;1720780;83;20989;-68
2022/11/26 06:03:52;;;;;;;20.20;13.93;;;;;;;3.34;86.33;100525.70;1708743;83;21002;-68
2022/11/26 06:06:19;;;;;;;19.57;13.65;;;;;;;3.33;86.33;100532.30;1706134;83;21761;-68
2022/11/26 06:08:45;;;;;;;19.10;13.58;;;;;;;3.32;86.34;100539.28;1719352;83;21553;-67
2022/11/26 06:11:12;;;;;;;19.02;13.75;;;;;;;3.32;86.37;100545.81;1717757;82;21413;-67
2022/11/26 06:13:40;;;;;;;18.30;13.35;;;;;;;3.36;86.44;100546.05;1721939;83;20993;-68
2022/11/26 06:16:07;;;;;;;23.62;12.78;;;;;;;3.39;86.48;100540.70;1719999;83;21060;-68
2022/11/26 06:18:36;;;;;;;19.73;13.25;;;;;;;3.40;86.46;100538.94;1705327;82;22454;-68
2022/11/26 06:21:05;;;;;;;22.62;14.03;;;;;;;3.39;86.39;100542.01;1730187;81;21096;-68
2022/11/26 06:23:33;;;;;;;20.17;12.98;;;;;;;3.38;86.40;100552.06;1709446;83;21005;-72
2022/11/26 06:25:59;;;;;;;21.95;14.03;;;;;;;3.38;86.41;100551.22;1707693;83;21049;-68
2022/11/26 06:28:27;;;;;;;23.45;14.60;;;;;;;3.39;86.45;100552.91;1709776;82;21017;-69
2022/11/26 06:30:54;;;;;;;19.40;13.85;;;;;;;3.40;86.52;100554.14;1710458;82;21907;-68
2022/11/26 06:33:21;;;;;;;19.82;13.43;;;;;;;3.44;86.53;100555.67;1724456;83;20986;-68
2022/11/26 06:35:47;;;;;;;20.25;14.20;;;;;;;3.45;86.50;100561.28;1712605;82;21427;-69
2022/11/26 06:38:14;;;;;;;21.48;13.00;;;;;;;3.45;86.52;100564.36;1717373;82;21654;-68
2022/11/26 06:40:41;;;;;;;22.45;13.48;;;;;;;3.43;86.49;100560.52;1710506;83;21742;-68
2022/11/26 06:43:07;;;;;;;24.80;17.23;;;;;;;3.43;86.49;100558.36;1712050;83;21839;-68
2022/11/26 06:45:34;;;;;;;18.52;13.55;;;;;;;3.42;86.52;100561.89;1710091;83;20990;-68
2022/11/26 06:48:00;;;;;;;23.15;14.80;;;;;;;3.44;86.57;100561.36;1714645;83;21003;-68
2022/11/26 06:50:27;;;;;;;18.98;15.13;;;;;;;3.47;86.58;100561.66;1715951;83;20995;-71
2022/11/26 06:52:53;;;;;;;21.90;14.43;;;;;;;3.47;86.57;100564.28;1711773;82;21009;-68
2022/11/26 06:55:21;;;;;;;19.07;13.15;;;;;;;3.50;86.65;100565.46;1712205;81;21827;-68
2022/11/26 06:57:51;;;;;;;19.37;13.18;;;;;;;3.55;86.65;100567.38;1714481;82;21028;-68
2022/11/26 07:00:19;;;;;;;20.57;12.50;;;;;;;3.53;86.59;100559.63;1713913;83;21256;-68
2022/11/26 07:02:47;;;;;;;22.65;13.00;;;;;;;3.51;86.56;100564.08;1720712;83;21452;-68
2022/11/26 07:05:15;;;;;;;17.42;11.73;;;;;;;3.51;86.55;100568.45;1701540;82;21014;-68
2022/11/26 07:07:42;;;;;;;19.27;14.10;;;;;;;3.52;86.57;100566.23;1718897;83;21828;-68
2022/11/26 07:10:09;;;;;;;17.70;13.18;;;;;;;3.54;86.61;100571.76;1719929;83;21006;-69
2022/11/26 07:12:36;;;;;;;40.05;29.42;;;;;;;3.56;86.63;100571.68;1721664;81;21433;-68
2022/11/26 07:15:04;;;;;;;20.17;14.83;;;;;;;3.60;86.67;100579.78;1723048;83;21461;-68
2022/11/26 07:17:31;;;;;;;18.10;13.28;;;;;;;3.60;86.62;100576.70;1687814;83;21333;-68
2022/11/26 07:19:58;;;;;;;21.40;12.73;;;;;;;3.60;86.61;100583.70;1715342;81;21941;-68
2022/11/26 07:22:24;;;;;;;19.27;12.10;;;;;;;3.59;86.61;100587.23;1751570;81;21142;-68
2022/11/26 07:24:59;;;;;;;18.30;12.63;;;;;;;3.60;86.61;100582.39;1740773;81;21011;-68
2022/11/26 07:27:26;;;;;;;19.75;15.28;;;;;;;3.58;86.55;100589.00;1700453;83;21023;-68
2022/11/26 07:29:53;;;;;;;17.35;12.03;;;;;;;3.57;86.55;100594.27;1714870;83;21019;-69
2022/11/26 07:32:20;;;;;;;21.55;12.90;;;;;;;3.57;86.58;100599.48;1712305;83;21837;-68
2022/11/26 07:34:46;;;;;;;19.60;12.65;;;;;;;3.55;86.54;100603.48;1718329;83;21008;-69
2022/11/26 07:37:13;;;;;;;17.65;12.43;;;;;;;3.54;86.55;100603.09;1700009;83;21120;-69
2022/11/26 07:39:39;;;;;;;16.27;11.50;;;;;;;3.56;86.54;100603.02;1719206;83;21118;-68
2022/11/26 07:42:06;;;;;;;16.07;11.85;;;;;;;3.54;86.51;100603.09;1725565;83;21062;-72
2022/11/26 07:44:33;;;;;;;22.42;13.38;;;;;;;3.54;86.53;100611.39;1713017;83;21959;-68
2022/11/26 07:47:02;;;;;;;23.95;12.98;;;;;;;3.54;86.54;100610.93;1713238;83;21392;-69
2022/11/26 07:49:29;;;;;;;17.75;12.70;;;;;;;3.55;86.55;100610.47;1716613;83;20952;-69
2022/11/26 07:51:55;;;;;;;18.70;13.25;;;;;;;3.56;86.61;100614.31;1706391;82;21081;-69
2022/11/26 07:54:22;;;;;;;17.30;11.90;;;;;;;3.59;86.61;100610.27;1722339;83;20952;-69
2022/11/26 07:56:48;;;;;;;14.90;11.55;;;;;;;3.60;86.56;100609.81;1710084;83;21784;-68
2022/11/26 07:59:15;;;;;;;17.10;12.78;;;;;;;3.62;86.59;100609.27;1700895;83;21037;-69
2022/11/26 08:01:43;;;;;;;18.10;12.33;;;;;;;3.59;86.51;100612.88;1712634;83;21580;-69
2022/11/26 08:04:10;;;;;;;15.80;11.43;;;;;;;3.57;86.46;100619.08;1721115;82;21571;-68
2022/11/26 08:06:36;;;;;;;18.90;12.28;;;;;;;3.55;86.50;100617.84;1706983;83;21482;-68
2022/11/26 08:09:04;;;;;;;20.82;11.53;;;;;;;3.57;86.60;100619.08;1696647;83;22213;-67
2022/11/26 08:11:32;;;;;;;18.67;11.88;;;;;;;3.58;86.62;100624.72;1714501;82;21051;-67
2022/11/26 08:14:02;;;;;;;17.30;11.45;;;;;;;3.57;86.58;100627.78;1702174;83;21003;-67
2022/11/26 08:16:29;;;;;;;19.07;12.10;;;;;;;3.58;86.66;100623.41;1717512;82;21086;-67
2022/11/26 08:18:57;;;;;;;16.62;11.93;;;;;;;3.58;86.60;100629.94;1712804;82;21015;-67
2022/11/26 08:21:24;;;;;;;16.00;11.95;;;;;;;3.59;86.66;100632.47;1716538;83;21948;-74
2022/11/26 08:23:52;;;;;;;32.75;26.12;;;;;;;3.59;86.68;100634.23;1703620;83;21549;-71
2022/11/26 08:26:19;;;;;;;27.25;20.82;;;;;;;3.61;86.73;100637.63;1710432;83;21047;-69
2022/11/26 08:28:47;;;;;;;22.10;14.90;;;;;;;3.65;86.78;100637.39;1713645;83;21122;-70
2022/11/26 08:31:15;;;;;;;21.30;11.97;;;;;;;3.70;86.78;100638.50;1719130;83;21094;-67
2022/11/26 08:33:41;;;;;;;19.95;13.62;;;;;;;3.70;86.75;100638.50;1709640;83;21818;-68
2022/11/26 08:36:09;;;;;;;15.83;11.70;;;;;;;3.68;86.69;100637.73;1706086;83;21403;-68
2022/11/26 08:38:35;;;;;;;19.40;11.73;;;;;;;3.63;86.68;100639.23;1714125;82;21066;-67
2022/11/26 08:41:06;;;;;;;20.70;12.85;;;;;;;3.65;86.72;100640.46;1716172;82;21035;-69
2022/11/26 08:43:36;;;;;;;15.63;10.20;;;;;;;3.65;86.73;100643.92;1710963;83;20946;-70
2022/11/26 08:46:03;;;;;;;15.03;11.57;;;;;;;3.66;86.72;100642.16;1717029;83;21834;-70
2022/11/26 08:48:30;;;;;;;21.05;12.47;;;;;;;3.66;86.75;100644.30;1708843;82;21558;-66
2022/11/26 08:51:03;;;;;;;20.27;14.13;;;;;;;3.67;86.75;100642.57;1710910;82;21023;-71
2022/11/26 08:53:30;;;;;;;14.95;11.05;;;;;;;3.67;86.76;100645.19;1713759;82;21502;-66
2022/11/26 08:56:03;;;;;;;13.62;10.38;;;;;;;3.70;86.80;100630.66;1710352;83;21039;-70
2022/11/26 08:58:34;;;;;;;13.40;10.00;;;;;;;3.72;86.85;100638.80;1712409;82;21995;-70
2022/11/26 09:01:16;;;;;;;13.88;10.25;;;;;;;3.74;86.81;100634.81;1715628;82;21067;-67
2022/11/26 09:03:43;;;;;;;14.63;10.55;;;;;;;3.78;86.84;100642.91;1712015;82;20999;-70
2022/11/26 09:06:12;;;;;;;14.35;9.63;;;;;;;3.82;86.82;100643.60;1702452;83;21012;-70
2022/11/26 09:11:26;;;;;;;14.25;9.33;;;;;;;3.81;86.75;100647.98;1711415;83;21852;-71
2022/11/26 09:13:53;;;;;;;15.05;9.58;;;;;;;3.79;86.67;100641.98;1721411;83;21059;-69
2022/11/26 09:16:21;;;;;;;13.13;9.68;;;;;;;3.79;86.70;100648.98;1741436;81;21101;-69
2022/11/26 09:18:47;;;;;;;12.80;9.53;;;;;;;3.79;86.71;100651.13;1731035;81;21074;-81
2022/11/26 09:21:14;;;;;;;16.30;9.75;;;;;;;3.80;86.69;100654.13;1744815;81;21003;-71
2022/11/26 09:23:40;;;;;;;14.60;10.25;;;;;;;3.83;86.73;100652.67;1729328;81;21812;-69
2022/11/26 09:26:07;;;;;;;14.38;9.60;;;;;;;3.84;86.69;100662.20;1728192;81;21015;-68
2022/11/26 09:28:34;;;;;;;13.98;9.68;;;;;;;3.79;86.58;100658.97;1727640;82;21355;-73
2022/11/26 09:31:03;;;;;;;11.70;8.68;;;;;;;3.75;86.61;100657.41;1722598;82;21039;-71
2022/11/26 09:33:29;;;;;;;13.72;10.20;;;;;;;3.74;86.61;100659.62;1723729;82;20991;-69
2022/11/26 09:36:06;;;;;;;13.55;9.53;;;;;;;3.75;86.63;100661.32;1722861;82;22662;-69
2022/11/26 09:38:35;;;;;;;15.50;9.45;;;;;;;3.76;86.64;100663.02;1728311;82;21039;-70
2022/11/26 09:41:19;;;;;;;15.38;10.82;;;;;;;3.80;86.73;100661.97;1698324;82;21031;-69
2022/11/26 09:44:17;;;;;;;20.37;15.10;;;;;;;3.80;86.69;100664.58;1721096;82;21557;-77
2022/11/26 09:46:59;;;;;;;128.12;75.17;;;;;;;3.81;86.76;100664.97;1721830;82;21149;-70
2022/11/26 09:49:26;;;;;;;85.30;52.23;;;;;;;3.84;86.77;100666.12;1720993;82;21910;-69
2022/11/26 09:51:54;;;;;;;38.98;25.10;;;;;;;3.84;86.75;100670.04;1676011;82;38558;-69
2022/11/26 09:54:23;;;;;;;77.27;37.60;;;;;;;3.85;86.72;100673.03;1715129;82;21007;-68
2022/11/26 09:56:53;;;;;;;42.25;24.92;;;;;;;3.88;86.76;100675.98;1726573;82;21095;-69
2022/11/26 09:59:20;;;;;;;23.50;16.32;;;;;;;3.87;86.70;100684.28;1716936;82;21446;-69
2022/11/26 10:01:46;;;;;;;23.27;18.10;;;;;;;3.88;86.65;100683.83;1729269;82;22016;-71
2022/11/26 10:04:27;;;;;;;20.35;11.57;;;;;;;3.89;86.69;100684.21;1716301;82;21032;-70
2022/11/26 10:07:23;;;;;;;12.58;9.65;;;;;;;3.90;86.70;100681.98;1716044;81;20971;-76
2022/11/26 10:09:58;;;;;;;13.35;9.60;;;;;;;3.91;86.72;100683.21;1728489;82;21028;-71
2022/11/26 10:12:52;;;;;;;13.03;9.65;;;;;;;3.93;86.72;100681.37;1723181;81;21605;-71
2022/11/26 10:15:26;;;;;;;12.05;9.43;;;;;;;3.93;86.69;100683.13;1734247;82;21941;-70
2022/11/26 10:18:15;;;;;;;14.53;9.68;;;;;;;3.93;86.67;100676.60;1728223;82;21015;-72
2022/11/26 10:21:16;;;;;;;12.47;9.60;;;;;;;3.89;86.59;100674.60;1712830;81;21522;-71
2022/11/26 10:23:56;;;;;;;12.88;9.70;;;;;;;3.87;86.59;100682.14;1742189;80;21023;-72
2022/11/26 10:26:30;;;;;;;18.17;12.20;;;;;;;3.86;86.62;100686.52;1737376;81;21074;-74
2022/11/26 10:29:26;;;;;;;29.85;20.72;;;;;;;3.88;86.67;100684.67;1741998;81;22132;-71
2022/11/26 10:31:56;;;;;;;37.95;27.15;;;;;;;3.88;86.63;100687.28;1740454;80;21509;-70
2022/11/26 10:34:36;;;;;;;53.33;35.90;;;;;;;3.89;86.65;100688.13;1735216;81;21469;-73
2022/11/26 10:37:02;;;;;;;26.10;19.27;;;;;;;3.90;86.66;100693.28;1741079;80;20959;-69
2022/11/26 10:39:29;;;;;;;21.95;16.87;;;;;;;3.93;86.67;100692.28;1738504;81;21065;-67
2022/11/26 10:41:56;;;;;;;18.75;11.53;;;;;;;3.92;86.66;100691.44;1756735;80;21957;-68
2022/11/26 10:44:33;;;;;;;17.10;13.72;;;;;;;3.93;86.63;100694.44;1755933;81;21007;-71
2022/11/26 10:47:03;;;;;;;16.12;12.53;;;;;;;3.94;86.63;100696.12;1753361;80;21497;-70
2022/11/26 10:49:30;;;;;;;13.28;9.40;;;;;;;3.93;86.60;100694.89;1698793;81;21050;-73
2022/11/26 10:52:02;;;;;;;16.52;9.70;;;;;;;3.94;86.61;100696.59;1734161;81;21075;-73
2022/11/26 10:54:35;;;;;;;12.95;8.15;;;;;;;3.95;86.63;100703.04;1751115;80;22602;-70
2022/11/26 10:57:12;;;;;;;;;;;;;;;3.93;86.56;100703.58;1715300;81;21456;-71
2022/11/26 10:59:50;;;;;;;10.58;7.75;;;;;;;3.94;86.53;100707.88;1739218;81;20168;-69
2022/11/26 11:02:23;;;;;;;12.03;10.08;;;;;;;3.91;86.48;100708.03;1744869;80;21030;-70
2022/11/26 11:04:52;;;;;;;15.70;12.88;;;;;;;3.87;86.42;100709.11;1749093;81;21038;-70
2022/11/26 11:07:36;;;;;;;12.25;9.48;;;;;;;3.86;86.48;100714.38;1751659;81;21786;-69
2022/11/26 11:10:14;;;;;;;15.40;8.63;;;;;;;3.88;86.51;100720.41;1731537;81;21046;-69
2022/11/26 11:12:47;;;;;;;10.38;7.87;;;;;;;3.88;86.51;100726.48;1728394;81;21038;-69
2022/11/26 11:15:25;;;;;;;25.15;19.52;;;;;;;3.88;86.49;100726.48;1724518;81;21030;-71
2022/11/26 11:18:17;;;;;;;20.17;13.20;;;;;;;3.86;86.47;100724.41;1725519;83;21061;-69
2022/11/26 11:20:55;;;;;;;31.60;22.30;;;;;;;3.86;86.50;100723.53;1725737;83;21958;-68
2022/11/26 11:23:25;;;;;;;18.12;13.83;;;;;;;3.88;86.55;100722.56;1725996;81;21016;-75
2022/11/26 11:26:05;;;;;;;21.42;18.35;;;;;;;3.87;86.44;100727.41;1705716;81;21126;-72
2022/11/26 11:28:35;;;;;;;26.95;20.70;;;;;;;3.84;86.43;100733.20;1714108;81;21015;-71
2022/11/26 11:31:12;;;;;;;18.75;14.33;;;;;;;3.83;86.47;100732.36;1686191;83;21065;-70
2022/11/26 11:33:39;;;;;;;15.10;11.88;;;;;;;3.83;86.46;100734.97;1668324;84;21867;-71